sensor_id;sensor_type;location;lat;lon;timestamp;temperature;humidity
11055;DHT22;5580;50.106;8.702;2022-08-18T00:00:15;24.90;93.20
11055;DHT22;5580;50.106;8.702;2022-08-18T00:02:42;24.80;93.10
11055;DHT22;5580;50.106;8.702;2022-08-18T00:05:09;24.80;93.10
11055;DHT22;5580;50.106;8.702;2022-08-18T00:07:37;24.80;93.10
11055;DHT22;5580;50.106;8.702;2022-08-18T00:10:04;24.80;93.20
11055;DHT22;5580;50.106;8.702;2022-08-18T00:12:35;24.80;93.40
11055;DHT22;5580;50.106;8.702;2022-08-18T00:15:02;24.70;93.60
11055;DHT22;5580;50.106;8.702;2022-08-18T00:17:34;24.70;93.60
11055;DHT22;5580;50.106;8.702;2022-08-18T00:19:59;24.70;93.80
11055;DHT22;5580;50.106;8.702;2022-08-18T00:22:25;24.80;94.00
11055;DHT22;5580;50.106;8.702;2022-08-18T00:24:54;24.80;93.80
11055;DHT22;5580;50.106;8.702;2022-08-18T00:27:23;24.80;93.50
11055;DHT22;5580;50.106;8.702;2022-08-18T00:29:52;24.70;93.30
11055;DHT22;5580;50.106;8.702;2022-08-18T00:32:22;24.60;93.40
11055;DHT22;5580;50.106;8.702;2022-08-18T00:34:48;24.50;93.40
11055;DHT22;5580;50.106;8.702;2022-08-18T00:37:13;24.60;93.50
11055;DHT22;5580;50.106;8.702;2022-08-18T00:39:39;24.60;93.80
11055;DHT22;5580;50.106;8.702;2022-08-18T00:42:15;24.60;93.60
11055;DHT22;5580;50.106;8.702;2022-08-18T00:44:40;24.60;93.60
11055;DHT22;5580;50.106;8.702;2022-08-18T00:47:06;24.60;93.60
11055;DHT22;5580;50.106;8.702;2022-08-18T00:49:32;24.60;93.80
11055;DHT22;5580;50.106;8.702;2022-08-18T00:51:58;24.60;93.60
11055;DHT22;5580;50.106;8.702;2022-08-18T00:54:27;24.60;93.70
11055;DHT22;5580;50.106;8.702;2022-08-18T00:56:57;24.60;93.70
11055;DHT22;5580;50.106;8.702;2022-08-18T00:59:44;24.60;93.70
11055;DHT22;5580;50.106;8.702;2022-08-18T01:02:18;24.60;93.90
11055;DHT22;5580;50.106;8.702;2022-08-18T01:05:00;24.60;94.20
11055;DHT22;5580;50.106;8.702;2022-08-18T01:07:36;24.60;94.00
11055;DHT22;5580;50.106;8.702;2022-08-18T01:10:04;24.60;94.00
11055;DHT22;5580;50.106;8.702;2022-08-18T01:12:31;24.50;94.00
11055;DHT22;5580;50.106;8.702;2022-08-18T01:14:57;24.50;94.10
11055;DHT22;5580;50.106;8.702;2022-08-18T01:17:23;24.50;94.10
11055;DHT22;5580;50.106;8.702;2022-08-18T01:20:14;24.50;94.20
11055;DHT22;5580;50.106;8.702;2022-08-18T01:23:02;24.50;94.10
11055;DHT22;5580;50.106;8.702;2022-08-18T01:25:30;24.50;94.30
11055;DHT22;5580;50.106;8.702;2022-08-18T01:28:16;24.50;94.40
11055;DHT22;5580;50.106;8.702;2022-08-18T01:30:49;24.50;95.00
11055;DHT22;5580;50.106;8.702;2022-08-18T01:33:16;24.50;94.60
11055;DHT22;5580;50.106;8.702;2022-08-18T01:35:45;24.50;94.50
11055;DHT22;5580;50.106;8.702;2022-08-18T01:38:17;24.50;94.60
11055;DHT22;5580;50.106;8.702;2022-08-18T01:40:44;24.50;94.70
11055;DHT22;5580;50.106;8.702;2022-08-18T01:43:11;24.50;94.70
11055;DHT22;5580;50.106;8.702;2022-08-18T01:45:37;24.50;94.80
11055;DHT22;5580;50.106;8.702;2022-08-18T01:48:03;24.40;94.90
11055;DHT22;5580;50.106;8.702;2022-08-18T01:50:29;24.40;94.90
11055;DHT22;5580;50.106;8.702;2022-08-18T01:52:54;24.40;95.00
11055;DHT22;5580;50.106;8.702;2022-08-18T01:55:20;24.40;95.20
11055;DHT22;5580;50.106;8.702;2022-08-18T01:57:46;24.40;95.40
11055;DHT22;5580;50.106;8.702;2022-08-18T02:00:13;24.40;95.80
11055;DHT22;5580;50.106;8.702;2022-08-18T02:02:40;24.40;96.00
11055;DHT22;5580;50.106;8.702;2022-08-18T02:05:11;24.40;96.30
11055;DHT22;5580;50.106;8.702;2022-08-18T02:07:39;24.40;96.30
11055;DHT22;5580;50.106;8.702;2022-08-18T02:10:07;24.40;96.10
11055;DHT22;5580;50.106;8.702;2022-08-18T02:12:35;24.40;95.70
11055;DHT22;5580;50.106;8.702;2022-08-18T02:15:01;24.30;95.30
11055;DHT22;5580;50.106;8.702;2022-08-18T02:17:26;24.30;95.10
11055;DHT22;5580;50.106;8.702;2022-08-18T02:19:52;24.40;95.30
11055;DHT22;5580;50.106;8.702;2022-08-18T02:22:19;24.30;95.00
11055;DHT22;5580;50.106;8.702;2022-08-18T02:24:45;24.30;95.00
11055;DHT22;5580;50.106;8.702;2022-08-18T02:27:12;24.30;95.10
11055;DHT22;5580;50.106;8.702;2022-08-18T02:29:38;24.30;95.20
11055;DHT22;5580;50.106;8.702;2022-08-18T02:32:05;24.20;95.10
11055;DHT22;5580;50.106;8.702;2022-08-18T02:34:31;24.20;95.30
11055;DHT22;5580;50.106;8.702;2022-08-18T02:37:00;24.20;95.40
11055;DHT22;5580;50.106;8.702;2022-08-18T02:39:27;24.20;95.30
11055;DHT22;5580;50.106;8.702;2022-08-18T02:41:52;24.20;95.30
11055;DHT22;5580;50.106;8.702;2022-08-18T02:44:18;24.10;95.30
11055;DHT22;5580;50.106;8.702;2022-08-18T02:46:44;24.10;95.50
11055;DHT22;5580;50.106;8.702;2022-08-18T02:49:10;24.10;95.70
11055;DHT22;5580;50.106;8.702;2022-08-18T02:51:37;24.10;95.70
11055;DHT22;5580;50.106;8.702;2022-08-18T02:54:03;24.00;95.70
11055;DHT22;5580;50.106;8.702;2022-08-18T02:56:33;24.00;96.00
11055;DHT22;5580;50.106;8.702;2022-08-18T02:59:03;24.00;96.10
11055;DHT22;5580;50.106;8.702;2022-08-18T03:01:31;24.00;96.20
11055;DHT22;5580;50.106;8.702;2022-08-18T03:03:58;24.10;96.30
11055;DHT22;5580;50.106;8.702;2022-08-18T03:06:25;24.00;96.30
11055;DHT22;5580;50.106;8.702;2022-08-18T03:08:52;24.00;96.20
11055;DHT22;5580;50.106;8.702;2022-08-18T03:11:24;24.10;96.40
11055;DHT22;5580;50.106;8.702;2022-08-18T03:13:50;24.10;96.60
11055;DHT22;5580;50.106;8.702;2022-08-18T03:16:17;24.00;96.70
11055;DHT22;5580;50.106;8.702;2022-08-18T03:18:44;24.00;96.80
11055;DHT22;5580;50.106;8.702;2022-08-18T03:21:22;24.10;97.10
11055;DHT22;5580;50.106;8.702;2022-08-18T03:23:49;24.10;97.00
11055;DHT22;5580;50.106;8.702;2022-08-18T03:26:17;24.00;97.30
11055;DHT22;5580;50.106;8.702;2022-08-18T03:28:45;24.00;97.30
11055;DHT22;5580;50.106;8.702;2022-08-18T03:31:13;24.00;97.40
11055;DHT22;5580;50.106;8.702;2022-08-18T03:33:40;24.10;97.30
11055;DHT22;5580;50.106;8.702;2022-08-18T03:36:21;24.00;97.30
11055;DHT22;5580;50.106;8.702;2022-08-18T03:38:48;24.00;97.20
11055;DHT22;5580;50.106;8.702;2022-08-18T03:41:16;24.00;97.40
11055;DHT22;5580;50.106;8.702;2022-08-18T03:43:42;24.00;97.50
11055;DHT22;5580;50.106;8.702;2022-08-18T03:46:11;24.00;97.30
11055;DHT22;5580;50.106;8.702;2022-08-18T03:48:38;24.00;97.50
11055;DHT22;5580;50.106;8.702;2022-08-18T03:51:15;24.00;97.50
11055;DHT22;5580;50.106;8.702;2022-08-18T03:53:43;24.00;97.70
11055;DHT22;5580;50.106;8.702;2022-08-18T03:56:12;23.90;97.60
11055;DHT22;5580;50.106;8.702;2022-08-18T03:58:48;23.90;97.80
11055;DHT22;5580;50.106;8.702;2022-08-18T04:01:15;23.90;97.90
11055;DHT22;5580;50.106;8.702;2022-08-18T04:03:43;23.90;98.10
11055;DHT22;5580;50.106;8.702;2022-08-18T04:06:23;23.90;98.00
11055;DHT22;5580;50.106;8.702;2022-08-18T04:08:52;23.80;98.10
11055;DHT22;5580;50.106;8.702;2022-08-18T04:11:18;23.80;98.40
11055;DHT22;5580;50.106;8.702;2022-08-18T04:13:44;23.80;98.30
11055;DHT22;5580;50.106;8.702;2022-08-18T04:16:09;23.80;98.50
11055;DHT22;5580;50.106;8.702;2022-08-18T04:18:35;23.80;98.60
11055;DHT22;5580;50.106;8.702;2022-08-18T04:21:02;23.80;98.50
11055;DHT22;5580;50.106;8.702;2022-08-18T04:23:29;23.80;98.70
11055;DHT22;5580;50.106;8.702;2022-08-18T04:25:59;23.80;98.80
11055;DHT22;5580;50.106;8.702;2022-08-18T04:28:26;23.80;98.80
11055;DHT22;5580;50.106;8.702;2022-08-18T04:30:53;23.80;99.00
11055;DHT22;5580;50.106;8.702;2022-08-18T04:33:19;23.80;98.90
11055;DHT22;5580;50.106;8.702;2022-08-18T04:35:45;23.80;99.20
11055;DHT22;5580;50.106;8.702;2022-08-18T04:38:12;23.80;99.10
11055;DHT22;5580;50.106;8.702;2022-08-18T04:40:38;23.80;99.20
11055;DHT22;5580;50.106;8.702;2022-08-18T04:43:06;23.80;99.30
11055;DHT22;5580;50.106;8.702;2022-08-18T04:45:36;23.80;99.40
11055;DHT22;5580;50.106;8.702;2022-08-18T04:48:04;23.80;99.40
11055;DHT22;5580;50.106;8.702;2022-08-18T04:50:30;23.80;99.60
11055;DHT22;5580;50.106;8.702;2022-08-18T04:52:55;23.80;99.80
11055;DHT22;5580;50.106;8.702;2022-08-18T04:55:48;23.80;99.70
11055;DHT22;5580;50.106;8.702;2022-08-18T04:58:16;23.80;99.80
11055;DHT22;5580;50.106;8.702;2022-08-18T05:00:43;23.80;99.90
11055;DHT22;5580;50.106;8.702;2022-08-18T05:03:09;23.80;99.90
11055;DHT22;5580;50.106;8.702;2022-08-18T05:05:35;23.80;99.90
11055;DHT22;5580;50.106;8.702;2022-08-18T05:08:01;23.80;99.90
11055;DHT22;5580;50.106;8.702;2022-08-18T05:10:27;23.70;99.90
11055;DHT22;5580;50.106;8.702;2022-08-18T05:12:52;23.70;99.90
11055;DHT22;5580;50.106;8.702;2022-08-18T05:15:18;23.70;99.90
11055;DHT22;5580;50.106;8.702;2022-08-18T05:17:45;23.70;99.90
11055;DHT22;5580;50.106;8.702;2022-08-18T05:20:11;23.70;99.90
11055;DHT22;5580;50.106;8.702;2022-08-18T05:22:38;23.70;99.90
11055;DHT22;5580;50.106;8.702;2022-08-18T05:25:09;23.70;99.90
11055;DHT22;5580;50.106;8.702;2022-08-18T05:27:40;23.70;99.90
11055;DHT22;5580;50.106;8.702;2022-08-18T05:30:08;23.60;99.90
11055;DHT22;5580;50.106;8.702;2022-08-18T05:32:39;23.60;99.90
11055;DHT22;5580;50.106;8.702;2022-08-18T05:35:12;23.60;99.90
11055;DHT22;5580;50.106;8.702;2022-08-18T05:40:36;23.60;99.90
11055;DHT22;5580;50.106;8.702;2022-08-18T05:43:03;23.50;99.90
11055;DHT22;5580;50.106;8.702;2022-08-18T05:45:29;23.50;99.90
11055;DHT22;5580;50.106;8.702;2022-08-18T05:47:58;23.50;99.90
11055;DHT22;5580;50.106;8.702;2022-08-18T05:50:25;23.50;99.90
11055;DHT22;5580;50.106;8.702;2022-08-18T05:55:34;23.50;99.90
11055;DHT22;5580;50.106;8.702;2022-08-18T05:58:24;23.50;99.90
11055;DHT22;5580;50.106;8.702;2022-08-18T06:00:54;23.50;99.90
11055;DHT22;5580;50.106;8.702;2022-08-18T06:03:27;23.50;99.90
11055;DHT22;5580;50.106;8.702;2022-08-18T06:05:58;23.50;99.90
11055;DHT22;5580;50.106;8.702;2022-08-18T06:08:35;23.50;99.90
11055;DHT22;5580;50.106;8.702;2022-08-18T06:11:01;23.50;99.90
11055;DHT22;5580;50.106;8.702;2022-08-18T06:13:26;23.50;99.90
11055;DHT22;5580;50.106;8.702;2022-08-18T06:16:07;23.40;99.90
11055;DHT22;5580;50.106;8.702;2022-08-18T06:21:14;23.50;99.90
11055;DHT22;5580;50.106;8.702;2022-08-18T06:24:10;23.50;99.90
11055;DHT22;5580;50.106;8.702;2022-08-18T06:40:38;23.50;99.90
11055;DHT22;5580;50.106;8.702;2022-08-18T06:43:08;23.40;99.90
11055;DHT22;5580;50.106;8.702;2022-08-18T06:45:37;23.40;99.90
11055;DHT22;5580;50.106;8.702;2022-08-18T06:50:39;23.40;99.90
11055;DHT22;5580;50.106;8.702;2022-08-18T06:53:07;23.40;99.90
11055;DHT22;5580;50.106;8.702;2022-08-18T06:55:34;23.40;99.90
11055;DHT22;5580;50.106;8.702;2022-08-18T06:58:03;23.40;99.90
11055;DHT22;5580;50.106;8.702;2022-08-18T07:00:33;23.30;99.90
11055;DHT22;5580;50.106;8.702;2022-08-18T07:03:11;23.30;99.90
11055;DHT22;5580;50.106;8.702;2022-08-18T07:05:58;23.30;99.90
11055;DHT22;5580;50.106;8.702;2022-08-18T07:08:37;23.30;99.90
11055;DHT22;5580;50.106;8.702;2022-08-18T07:13:43;23.20;99.90
11055;DHT22;5580;50.106;8.702;2022-08-18T07:18:53;23.20;99.90
11055;DHT22;5580;50.106;8.702;2022-08-18T07:21:31;23.10;99.90
11055;DHT22;5580;50.106;8.702;2022-08-18T07:27:00;23.00;99.90
11055;DHT22;5580;50.106;8.702;2022-08-18T07:29:31;23.00;99.90
11055;DHT22;5580;50.106;8.702;2022-08-18T07:32:02;23.00;99.90
11055;DHT22;5580;50.106;8.702;2022-08-18T07:34:38;23.00;99.90
11055;DHT22;5580;50.106;8.702;2022-08-18T07:39:55;23.00;99.90
11055;DHT22;5580;50.106;8.702;2022-08-18T07:45:13;23.00;99.90
11055;DHT22;5580;50.106;8.702;2022-08-18T07:50:24;23.00;99.90
11055;DHT22;5580;50.106;8.702;2022-08-18T07:53:07;23.00;99.90
11055;DHT22;5580;50.106;8.702;2022-08-18T07:55:40;23.00;99.90
11055;DHT22;5580;50.106;8.702;2022-08-18T07:58:21;22.90;99.90
11055;DHT22;5580;50.106;8.702;2022-08-18T08:00:56;22.90;99.90
11055;DHT22;5580;50.106;8.702;2022-08-18T08:03:50;22.90;99.90
11055;DHT22;5580;50.106;8.702;2022-08-18T08:06:26;23.00;99.90
11055;DHT22;5580;50.106;8.702;2022-08-18T08:12:09;23.00;99.90
11055;DHT22;5580;50.106;8.702;2022-08-18T08:14:46;22.90;99.90
11055;DHT22;5580;50.106;8.702;2022-08-18T08:22:38;23.00;99.90
11055;DHT22;5580;50.106;8.702;2022-08-18T08:25:18;23.00;99.90
11055;DHT22;5580;50.106;8.702;2022-08-18T08:30:30;23.00;99.90
11055;DHT22;5580;50.106;8.702;2022-08-18T08:33:23;23.00;99.90
11055;DHT22;5580;50.106;8.702;2022-08-18T08:36:01;23.10;99.90
11055;DHT22;5580;50.106;8.702;2022-08-18T08:38:39;23.00;99.90
11055;DHT22;5580;50.106;8.702;2022-08-18T08:41:15;23.00;99.90
11055;DHT22;5580;50.106;8.702;2022-08-18T08:44:01;23.00;99.90
11055;DHT22;5580;50.106;8.702;2022-08-18T08:46:29;23.00;99.90
11055;DHT22;5580;50.106;8.702;2022-08-18T08:49:12;23.00;99.90
11055;DHT22;5580;50.106;8.702;2022-08-18T08:51:45;23.10;99.90
11055;DHT22;5580;50.106;8.702;2022-08-18T08:54:20;23.10;99.90
11055;DHT22;5580;50.106;8.702;2022-08-18T08:56:53;23.10;99.90
11055;DHT22;5580;50.106;8.702;2022-08-18T08:59:21;23.10;99.90
11055;DHT22;5580;50.106;8.702;2022-08-18T09:02:21;23.00;99.90
11055;DHT22;5580;50.106;8.702;2022-08-18T09:26:48;22.70;99.90
11055;DHT22;5580;50.106;8.702;2022-08-18T09:29:18;22.80;99.90
11055;DHT22;5580;50.106;8.702;2022-08-18T09:32:29;22.80;99.90
11055;DHT22;5580;50.106;8.702;2022-08-18T09:40:13;23.00;99.90
11055;DHT22;5580;50.106;8.702;2022-08-18T09:43:15;23.00;99.90
11055;DHT22;5580;50.106;8.702;2022-08-18T09:48:29;23.10;99.90
11055;DHT22;5580;50.106;8.702;2022-08-18T09:56:17;22.90;99.90
11055;DHT22;5580;50.106;8.702;2022-08-18T09:58:57;23.00;99.90
11055;DHT22;5580;50.106;8.702;2022-08-18T10:06:40;23.20;99.90
11055;DHT22;5580;50.106;8.702;2022-08-18T10:14:33;23.30;99.90
11055;DHT22;5580;50.106;8.702;2022-08-18T10:20:17;23.30;99.90
11055;DHT22;5580;50.106;8.702;2022-08-18T10:22:47;23.40;99.90
11055;DHT22;5580;50.106;8.702;2022-08-18T10:25:34;23.30;99.90
11055;DHT22;5580;50.106;8.702;2022-08-18T10:28:00;23.30;99.90
11055;DHT22;5580;50.106;8.702;2022-08-18T10:33:00;23.30;99.90
11055;DHT22;5580;50.106;8.702;2022-08-18T10:40:40;23.40;99.90
11055;DHT22;5580;50.106;8.702;2022-08-18T10:43:21;23.40;99.90
11055;DHT22;5580;50.106;8.702;2022-08-18T10:45:55;23.50;99.90
11055;DHT22;5580;50.106;8.702;2022-08-18T10:48:24;23.50;99.90
11055;DHT22;5580;50.106;8.702;2022-08-18T10:51:24;23.50;99.90
11055;DHT22;5580;50.106;8.702;2022-08-18T10:54:07;23.60;99.90
11055;DHT22;5580;50.106;8.702;2022-08-18T10:56:48;23.60;99.90
11055;DHT22;5580;50.106;8.702;2022-08-18T10:59:35;23.60;99.90
11055;DHT22;5580;50.106;8.702;2022-08-18T11:05:04;23.70;99.90
11055;DHT22;5580;50.106;8.702;2022-08-18T11:07:31;23.70;99.90
11055;DHT22;5580;50.106;8.702;2022-08-18T11:09:58;23.70;99.90
11055;DHT22;5580;50.106;8.702;2022-08-18T11:15:23;23.80;99.90
11055;DHT22;5580;50.106;8.702;2022-08-18T11:21:20;23.90;99.90
11055;DHT22;5580;50.106;8.702;2022-08-18T11:23:39;23.90;99.90
11055;DHT22;5580;50.106;8.702;2022-08-18T11:26:15;23.90;99.90
11055;DHT22;5580;50.106;8.702;2022-08-18T11:28:41;23.80;99.90
11055;DHT22;5580;50.106;8.702;2022-08-18T11:31:06;23.90;99.90
11055;DHT22;5580;50.106;8.702;2022-08-18T11:33:32;23.90;99.90
11055;DHT22;5580;50.106;8.702;2022-08-18T11:35:58;23.90;99.90
11055;DHT22;5580;50.106;8.702;2022-08-18T11:38:26;23.90;99.90
11055;DHT22;5580;50.106;8.702;2022-08-18T11:41:17;23.90;99.90
11055;DHT22;5580;50.106;8.702;2022-08-18T11:43:43;24.00;99.90
11055;DHT22;5580;50.106;8.702;2022-08-18T11:48:44;24.10;99.90
11055;DHT22;5580;50.106;8.702;2022-08-18T11:51:17;24.10;99.90
11055;DHT22;5580;50.106;8.702;2022-08-18T12:01:50;24.30;99.90
11055;DHT22;5580;50.106;8.702;2022-08-18T12:07:06;24.30;99.90
11055;DHT22;5580;50.106;8.702;2022-08-18T12:09:47;24.30;99.90
11055;DHT22;5580;50.106;8.702;2022-08-18T12:12:25;24.30;99.90
11055;DHT22;5580;50.106;8.702;2022-08-18T12:17:30;24.30;99.90
11055;DHT22;5580;50.106;8.702;2022-08-18T12:19:56;24.30;99.90
11055;DHT22;5580;50.106;8.702;2022-08-18T12:22:28;24.30;99.90
11055;DHT22;5580;50.106;8.702;2022-08-18T12:24:58;24.30;99.90
11055;DHT22;5580;50.106;8.702;2022-08-18T12:27:27;24.30;99.90
11055;DHT22;5580;50.106;8.702;2022-08-18T12:29:54;24.30;99.90
11055;DHT22;5580;50.106;8.702;2022-08-18T12:32:22;24.30;99.90
11055;DHT22;5580;50.106;8.702;2022-08-18T12:34:49;24.30;99.90
11055;DHT22;5580;50.106;8.702;2022-08-18T12:37:18;24.30;99.90
11055;DHT22;5580;50.106;8.702;2022-08-18T12:39:45;24.30;99.90
11055;DHT22;5580;50.106;8.702;2022-08-18T12:42:10;24.30;99.90
11055;DHT22;5580;50.106;8.702;2022-08-18T12:44:36;24.40;99.90
11055;DHT22;5580;50.106;8.702;2022-08-18T12:47:10;24.50;99.90
11055;DHT22;5580;50.106;8.702;2022-08-18T12:49:37;24.50;99.90
11055;DHT22;5580;50.106;8.702;2022-08-18T12:52:03;24.60;99.90
11055;DHT22;5580;50.106;8.702;2022-08-18T12:54:28;24.60;99.90
11055;DHT22;5580;50.106;8.702;2022-08-18T12:56:57;24.60;99.90
11055;DHT22;5580;50.106;8.702;2022-08-18T12:59:23;24.70;99.90
11055;DHT22;5580;50.106;8.702;2022-08-18T13:01:49;24.80;99.90
11055;DHT22;5580;50.106;8.702;2022-08-18T13:04:15;24.80;99.90
11055;DHT22;5580;50.106;8.702;2022-08-18T13:06:59;24.80;99.90
11055;DHT22;5580;50.106;8.702;2022-08-18T13:09:24;24.90;99.90
11055;DHT22;5580;50.106;8.702;2022-08-18T13:11:51;24.80;99.90
11055;DHT22;5580;50.106;8.702;2022-08-18T13:14:16;24.80;99.90
11055;DHT22;5580;50.106;8.702;2022-08-18T13:16:44;24.90;99.90
11055;DHT22;5580;50.106;8.702;2022-08-18T13:19:12;24.90;99.90
11055;DHT22;5580;50.106;8.702;2022-08-18T13:21:39;24.90;99.90
11055;DHT22;5580;50.106;8.702;2022-08-18T13:24:06;24.90;99.90
11055;DHT22;5580;50.106;8.702;2022-08-18T13:26:35;24.90;99.90
11055;DHT22;5580;50.106;8.702;2022-08-18T13:29:02;24.90;99.90
11055;DHT22;5580;50.106;8.702;2022-08-18T13:31:28;24.90;99.90
11055;DHT22;5580;50.106;8.702;2022-08-18T13:33:54;24.90;99.90
11055;DHT22;5580;50.106;8.702;2022-08-18T13:36:25;25.00;99.90
11055;DHT22;5580;50.106;8.702;2022-08-18T13:38:51;24.90;99.90
11055;DHT22;5580;50.106;8.702;2022-08-18T13:41:17;24.90;99.90
11055;DHT22;5580;50.106;8.702;2022-08-18T13:43:43;25.00;99.90
11055;DHT22;5580;50.106;8.702;2022-08-18T13:46:14;24.90;99.90
11055;DHT22;5580;50.106;8.702;2022-08-18T13:48:40;25.00;99.90
11055;DHT22;5580;50.106;8.702;2022-08-18T13:51:08;25.00;99.90
11055;DHT22;5580;50.106;8.702;2022-08-18T13:53:36;25.00;99.90
11055;DHT22;5580;50.106;8.702;2022-08-18T13:56:03;25.10;99.90
11055;DHT22;5580;50.106;8.702;2022-08-18T13:58:29;25.10;99.90
11055;DHT22;5580;50.106;8.702;2022-08-18T14:01:01;25.20;99.90
11055;DHT22;5580;50.106;8.702;2022-08-18T14:03:28;25.30;99.90
11055;DHT22;5580;50.106;8.702;2022-08-18T14:05:54;25.30;99.90
11055;DHT22;5580;50.106;8.702;2022-08-18T14:08:23;25.30;99.90
11055;DHT22;5580;50.106;8.702;2022-08-18T14:10:52;25.30;99.90
11055;DHT22;5580;50.106;8.702;2022-08-18T14:13:19;25.40;99.90
11055;DHT22;5580;50.106;8.702;2022-08-18T14:15:45;25.30;99.90
11055;DHT22;5580;50.106;8.702;2022-08-18T14:18:11;25.40;99.90
11055;DHT22;5580;50.106;8.702;2022-08-18T14:20:36;25.40;99.90
11055;DHT22;5580;50.106;8.702;2022-08-18T14:23:21;25.50;99.90
11055;DHT22;5580;50.106;8.702;2022-08-18T14:26:05;25.50;99.90
11055;DHT22;5580;50.106;8.702;2022-08-18T14:28:50;25.50;99.90
11055;DHT22;5580;50.106;8.702;2022-08-18T14:31:15;25.50;99.80
11055;DHT22;5580;50.106;8.702;2022-08-18T14:33:44;25.50;99.70
11055;DHT22;5580;50.106;8.702;2022-08-18T14:36:10;25.60;99.30
11055;DHT22;5580;50.106;8.702;2022-08-18T14:38:36;25.60;98.80
11055;DHT22;5580;50.106;8.702;2022-08-18T14:41:05;25.60;99.30
11055;DHT22;5580;50.106;8.702;2022-08-18T14:43:31;25.60;99.10
11055;DHT22;5580;50.106;8.702;2022-08-18T14:45:58;25.60;98.60
11055;DHT22;5580;50.106;8.702;2022-08-18T14:48:24;25.60;98.70
11055;DHT22;5580;50.106;8.702;2022-08-18T14:50:54;25.50;98.60
11055;DHT22;5580;50.106;8.702;2022-08-18T14:53:22;25.50;98.20
11055;DHT22;5580;50.106;8.702;2022-08-18T14:55:50;25.50;97.50
11055;DHT22;5580;50.106;8.702;2022-08-18T14:58:24;25.50;97.30
11055;DHT22;5580;50.106;8.702;2022-08-18T15:00:59;25.50;97.30
11055;DHT22;5580;50.106;8.702;2022-08-18T15:03:27;25.50;97.40
11055;DHT22;5580;50.106;8.702;2022-08-18T15:05:59;25.60;97.90
11055;DHT22;5580;50.106;8.702;2022-08-18T15:08:25;25.60;97.10
11055;DHT22;5580;50.106;8.702;2022-08-18T15:10:51;25.60;97.60
11055;DHT22;5580;50.106;8.702;2022-08-18T15:13:17;25.70;97.60
11055;DHT22;5580;50.106;8.702;2022-08-18T15:15:42;25.60;97.40
11055;DHT22;5580;50.106;8.702;2022-08-18T15:18:09;25.70;97.50
11055;DHT22;5580;50.106;8.702;2022-08-18T15:20:35;25.70;97.50
11055;DHT22;5580;50.106;8.702;2022-08-18T15:23:20;25.80;97.60
11055;DHT22;5580;50.106;8.702;2022-08-18T15:26:05;25.80;97.50
11055;DHT22;5580;50.106;8.702;2022-08-18T15:28:30;25.80;97.50
11055;DHT22;5580;50.106;8.702;2022-08-18T15:30:57;25.80;97.50
11055;DHT22;5580;50.106;8.702;2022-08-18T15:33:22;25.90;97.80
11055;DHT22;5580;50.106;8.702;2022-08-18T15:35:48;25.90;97.80
11055;DHT22;5580;50.106;8.702;2022-08-18T15:38:18;25.90;97.40
11055;DHT22;5580;50.106;8.702;2022-08-18T15:40:53;25.90;97.30
11055;DHT22;5580;50.106;8.702;2022-08-18T15:43:20;25.90;97.20
11055;DHT22;5580;50.106;8.702;2022-08-18T15:45:46;25.90;97.10
11055;DHT22;5580;50.106;8.702;2022-08-18T15:48:17;25.80;96.80
11055;DHT22;5580;50.106;8.702;2022-08-18T15:50:44;25.80;96.90
11055;DHT22;5580;50.106;8.702;2022-08-18T15:53:14;25.80;97.50
11055;DHT22;5580;50.106;8.702;2022-08-18T15:55:40;25.80;98.00
11055;DHT22;5580;50.106;8.702;2022-08-18T15:58:08;25.80;97.50
11055;DHT22;5580;50.106;8.702;2022-08-18T16:00:35;25.80;97.40
11055;DHT22;5580;50.106;8.702;2022-08-18T16:03:03;25.80;97.20
11055;DHT22;5580;50.106;8.702;2022-08-18T16:05:36;25.80;97.20
11055;DHT22;5580;50.106;8.702;2022-08-18T16:08:04;25.80;97.30
11055;DHT22;5580;50.106;8.702;2022-08-18T16:10:33;25.80;97.00
11055;DHT22;5580;50.106;8.702;2022-08-18T16:12:59;25.80;97.00
11055;DHT22;5580;50.106;8.702;2022-08-18T16:15:26;25.80;97.30
11055;DHT22;5580;50.106;8.702;2022-08-18T16:17:53;25.80;97.00
11055;DHT22;5580;50.106;8.702;2022-08-18T16:20:20;25.80;97.10
11055;DHT22;5580;50.106;8.702;2022-08-18T16:22:49;25.80;97.30
11055;DHT22;5580;50.106;8.702;2022-08-18T16:25:16;25.80;97.20
11055;DHT22;5580;50.106;8.702;2022-08-18T16:27:42;25.90;97.30
11055;DHT22;5580;50.106;8.702;2022-08-18T16:30:10;25.90;97.20
11055;DHT22;5580;50.106;8.702;2022-08-18T16:32:36;25.90;97.30
11055;DHT22;5580;50.106;8.702;2022-08-18T16:35:02;25.80;96.50
11055;DHT22;5580;50.106;8.702;2022-08-18T16:37:28;25.80;96.50
11055;DHT22;5580;50.106;8.702;2022-08-18T16:39:54;25.80;96.70
11055;DHT22;5580;50.106;8.702;2022-08-18T16:42:20;25.80;96.30
11055;DHT22;5580;50.106;8.702;2022-08-18T16:44:46;25.80;95.70
11055;DHT22;5580;50.106;8.702;2022-08-18T16:47:11;25.80;95.20
11055;DHT22;5580;50.106;8.702;2022-08-18T16:49:45;25.80;95.60
11055;DHT22;5580;50.106;8.702;2022-08-18T16:52:13;25.80;95.30
11055;DHT22;5580;50.106;8.702;2022-08-18T16:54:40;25.80;95.50
11055;DHT22;5580;50.106;8.702;2022-08-18T16:57:06;25.70;95.10
11055;DHT22;5580;50.106;8.702;2022-08-18T16:59:31;25.70;95.20
11055;DHT22;5580;50.106;8.702;2022-08-18T17:02:16;25.70;95.30
11055;DHT22;5580;50.106;8.702;2022-08-18T17:05:00;25.80;95.70
11055;DHT22;5580;50.106;8.702;2022-08-18T17:07:28;25.80;95.80
11055;DHT22;5580;50.106;8.702;2022-08-18T17:09:54;25.70;95.90
11055;DHT22;5580;50.106;8.702;2022-08-18T17:12:20;25.70;96.10
11055;DHT22;5580;50.106;8.702;2022-08-18T17:14:46;25.70;96.20
11055;DHT22;5580;50.106;8.702;2022-08-18T17:17:13;25.70;96.20
11055;DHT22;5580;50.106;8.702;2022-08-18T17:19:43;25.70;96.50
11055;DHT22;5580;50.106;8.702;2022-08-18T17:22:09;25.60;96.20
11055;DHT22;5580;50.106;8.702;2022-08-18T17:24:35;25.60;96.60
11055;DHT22;5580;50.106;8.702;2022-08-18T17:27:09;25.60;96.30
11055;DHT22;5580;50.106;8.702;2022-08-18T17:30:04;25.50;96.50
11055;DHT22;5580;50.106;8.702;2022-08-18T17:32:46;25.50;96.40
11055;DHT22;5580;50.106;8.702;2022-08-18T17:35:20;25.50;96.70
11055;DHT22;5580;50.106;8.702;2022-08-18T17:37:51;25.50;97.20
11055;DHT22;5580;50.106;8.702;2022-08-18T17:40:26;25.50;96.90
11055;DHT22;5580;50.106;8.702;2022-08-18T17:42:54;25.50;97.30
11055;DHT22;5580;50.106;8.702;2022-08-18T17:45:20;25.50;97.40
11055;DHT22;5580;50.106;8.702;2022-08-18T17:48:36;25.50;97.60
11055;DHT22;5580;50.106;8.702;2022-08-18T17:50:49;25.60;97.60
11055;DHT22;5580;50.106;8.702;2022-08-18T17:53:34;25.50;97.50
11055;DHT22;5580;50.106;8.702;2022-08-18T17:56:04;25.50;97.70
11055;DHT22;5580;50.106;8.702;2022-08-18T17:58:36;25.50;97.50
11055;DHT22;5580;50.106;8.702;2022-08-18T18:01:07;25.50;97.50
11055;DHT22;5580;50.106;8.702;2022-08-18T18:03:32;25.40;97.70
11055;DHT22;5580;50.106;8.702;2022-08-18T18:06:25;25.40;97.90
11055;DHT22;5580;50.106;8.702;2022-08-18T18:11:33;25.40;97.80
11055;DHT22;5580;50.106;8.702;2022-08-18T18:14:20;25.30;97.70
11055;DHT22;5580;50.106;8.702;2022-08-18T18:17:12;25.30;97.80
11055;DHT22;5580;50.106;8.702;2022-08-18T18:19:39;25.40;98.20
11055;DHT22;5580;50.106;8.702;2022-08-18T18:22:08;25.30;97.90